createdAt,value
2023-01-09T00:01:19.209Z,8.43
2023-01-09T00:03:47.827Z,7.35
2023-01-09T00:06:16.490Z,8.30
2023-01-09T00:08:45.276Z,7.25
2023-01-09T00:11:15.111Z,7.93
2023-01-09T00:13:43.565Z,8.00
2023-01-09T00:16:12.677Z,7.82
2023-01-09T00:18:41.097Z,7.55
2023-01-09T00:21:11.687Z,6.78
2023-01-09T00:23:40.362Z,8.60
2023-01-09T00:26:10.024Z,7.05
2023-01-09T00:28:39.793Z,6.93
2023-01-09T00:31:09.715Z,7.35
2023-01-09T00:33:41.125Z,7.22
2023-01-09T00:36:10.508Z,7.78
2023-01-09T00:38:39.649Z,6.80
2023-01-09T00:41:10.218Z,7.00
2023-01-09T00:43:42.725Z,6.95
2023-01-09T00:46:11.952Z,7.93
2023-01-09T00:48:42.215Z,7.40
2023-01-09T00:51:10.729Z,7.70
2023-01-09T00:53:40.698Z,7.40
2023-01-09T00:56:12.854Z,6.47
2023-01-09T00:58:42.956Z,6.82
2023-01-09T01:01:12.284Z,7.82
2023-01-09T01:03:40.796Z,7.28
2023-01-09T01:06:26.779Z,8.32
2023-01-09T01:08:56.984Z,7.80
2023-01-09T01:11:25.802Z,7.20
2023-01-09T01:13:55.492Z,7.78
2023-01-09T01:16:23.883Z,7.93
2023-01-09T01:18:52.299Z,7.68
2023-01-09T01:21:20.681Z,7.55
2023-01-09T01:23:48.983Z,8.38
2023-01-09T01:26:20.592Z,7.53
2023-01-09T01:28:48.966Z,7.57
2023-01-09T01:31:20.259Z,7.88
2023-01-09T01:33:48.715Z,8.00
2023-01-09T01:36:18.039Z,7.88
2023-01-09T01:38:48.097Z,7.95
2023-01-09T01:41:29.682Z,6.93
2023-01-09T01:43:59.776Z,7.53
2023-01-09T01:46:30.250Z,7.07
2023-01-09T01:49:03.983Z,8.70
2023-01-09T01:51:40.472Z,7.73
2023-01-09T01:54:14.597Z,6.78
2023-01-09T01:56:45.470Z,6.35
2023-01-09T01:59:18.645Z,6.93
2023-01-09T02:01:51.408Z,6.03
2023-01-09T02:04:19.972Z,6.85
2023-01-09T02:06:49.299Z,6.20
2023-01-09T02:09:20.599Z,6.38
2023-01-09T02:11:52.416Z,7.22
2023-01-09T02:14:21.742Z,8.75
2023-01-09T02:17:17.970Z,7.88
2023-01-09T02:20:23.655Z,4.72
2023-01-09T02:25:45.226Z,5.53
2023-01-09T02:28:53.988Z,5.90
2023-01-09T02:31:27.410Z,5.97
2023-01-09T02:34:00.667Z,7.07
2023-01-09T02:36:32.575Z,5.05
2023-01-09T02:39:12.358Z,5.05
2023-01-09T02:44:21.710Z,4.40
2023-01-09T02:47:01.327Z,8.00
2023-01-09T02:49:30.017Z,7.63
2023-01-09T02:52:05.885Z,7.40
2023-01-09T02:54:40.516Z,7.00
2023-01-09T02:57:19.934Z,7.82
2023-01-09T03:00:09.185Z,6.25
2023-01-09T03:02:49.530Z,6.50
2023-01-09T03:05:22.769Z,6.50
2023-01-09T03:07:56.729Z,6.68
2023-01-09T03:10:29.595Z,5.95
2023-01-09T03:12:59.861Z,5.82
2023-01-09T03:15:31.419Z,5.38
2023-01-09T03:18:02.331Z,4.60
2023-01-09T03:20:31.699Z,5.68
2023-01-09T03:23:01.574Z,4.90
2023-01-09T03:25:31.708Z,6.30
2023-01-09T03:28:01.790Z,2.97
2023-01-09T03:30:31.211Z,6.40
2023-01-09T03:33:01.340Z,4.45
2023-01-09T03:35:30.061Z,5.45
2023-01-09T03:37:59.162Z,4.43
2023-01-09T03:40:27.644Z,6.93
2023-01-09T03:42:56.122Z,6.43
2023-01-09T03:45:24.615Z,6.65
2023-01-09T03:47:53.175Z,4.72
2023-01-09T03:50:23.066Z,4.45
2023-01-09T03:52:52.420Z,6.05
2023-01-09T03:55:20.886Z,4.25
2023-01-09T03:57:52.828Z,6.13
2023-01-09T04:00:22.108Z,4.60
2023-01-09T04:02:50.615Z,5.20
2023-01-09T04:05:19.051Z,5.45
2023-01-09T04:07:48.781Z,4.85
2023-01-09T04:10:18.002Z,5.60
2023-01-09T04:12:46.432Z,2.90
2023-01-09T04:15:14.867Z,5.88
2023-01-09T04:17:43.220Z,4.80
2023-01-09T04:20:12.606Z,5.75
2023-01-09T04:22:41.227Z,2.85
2023-01-09T04:25:14.613Z,5.15
2023-01-09T04:27:43.010Z,5.45
2023-01-09T04:30:12.613Z,5.80
2023-01-09T04:32:41.070Z,3.45
2023-01-09T04:35:10.062Z,4.97
2023-01-09T04:37:39.521Z,5.05
2023-01-09T04:40:12.435Z,5.53
2023-01-09T04:42:41.672Z,2.95
2023-01-09T04:45:15.533Z,6.05
2023-01-09T04:47:44.835Z,3.95
2023-01-09T04:50:14.090Z,4.03
2023-01-09T04:52:42.471Z,3.30
2023-01-09T04:55:12.413Z,4.68
2023-01-09T04:57:41.136Z,5.50
2023-01-09T05:00:12.439Z,4.65
2023-01-09T05:02:42.043Z,5.93
2023-01-09T05:05:11.831Z,4.47
2023-01-09T05:07:41.147Z,5.47
2023-01-09T05:10:12.553Z,6.30
2023-01-09T05:12:41.546Z,3.80
2023-01-09T05:15:10.762Z,4.35
2023-01-09T05:17:39.220Z,5.55
2023-01-09T05:20:08.485Z,5.68
2023-01-09T05:22:37.018Z,7.32
2023-01-09T05:25:05.789Z,5.28
2023-01-09T05:27:35.613Z,3.92
2023-01-09T05:30:04.073Z,5.55
2023-01-09T05:32:36.155Z,5.07
2023-01-09T05:35:04.767Z,4.72
2023-01-09T05:37:33.191Z,4.38
2023-01-09T05:40:01.560Z,7.10
2023-01-09T05:42:31.898Z,5.05
2023-01-09T05:45:01.661Z,4.45
2023-01-09T05:47:30.439Z,4.15
2023-01-09T05:49:58.802Z,4.95
2023-01-09T05:52:27.393Z,5.07
2023-01-09T05:54:55.866Z,4.05
2023-01-09T05:57:24.336Z,5.25
2023-01-09T05:59:52.932Z,3.97
2023-01-09T06:02:22.799Z,3.40
2023-01-09T06:04:51.225Z,5.50
2023-01-09T06:07:22.085Z,4.53
2023-01-09T06:09:51.705Z,5.65
2023-01-09T06:12:20.421Z,4.90
2023-01-09T06:14:48.776Z,5.30
2023-01-09T06:17:17.152Z,4.45
2023-01-09T06:19:46.891Z,4.72
2023-01-09T06:22:15.457Z,4.95
2023-01-09T06:24:43.884Z,4.90
2023-01-09T06:27:13.183Z,3.38
2023-01-09T06:29:41.610Z,5.00
2023-01-09T06:32:09.990Z,4.55
2023-01-09T06:34:38.357Z,3.85
2023-01-09T06:37:09.179Z,4.50
2023-01-09T06:39:37.552Z,3.22
2023-01-09T06:42:06.053Z,3.47
2023-01-09T06:44:36.799Z,3.17
2023-01-09T06:47:05.337Z,4.70
2023-01-09T06:49:33.716Z,4.95
2023-01-09T06:52:05.714Z,3.83
2023-01-09T06:54:35.746Z,5.20
2023-01-09T06:57:04.144Z,3.83
2023-01-09T06:59:32.625Z,4.40
2023-01-09T07:02:01.126Z,4.40
2023-01-09T07:04:29.683Z,4.55
2023-01-09T07:06:58.051Z,5.25
2023-01-09T07:09:26.496Z,4.03
2023-01-09T07:11:56.278Z,5.35
2023-01-09T07:14:24.694Z,5.03
2023-01-09T07:16:53.054Z,3.17
2023-01-09T07:19:21.414Z,3.00
2023-01-09T07:21:49.769Z,3.80
2023-01-09T07:24:18.139Z,3.53
2023-01-09T07:26:46.563Z,3.13
2023-01-09T07:29:16.411Z,3.15
2023-01-09T07:31:47.059Z,2.95
2023-01-09T07:34:15.527Z,4.13
2023-01-09T07:36:46.628Z,5.30
2023-01-09T07:39:15.286Z,5.68
2023-01-09T07:41:43.729Z,4.45
2023-01-09T07:44:12.226Z,4.60
2023-01-09T07:46:43.047Z,4.13
2023-01-09T07:49:11.610Z,4.38
2023-01-09T07:51:43.378Z,4.90
2023-01-09T07:54:12.740Z,4.22
2023-01-09T07:56:41.308Z,4.82
2023-01-09T07:59:09.757Z,3.20
2023-01-09T08:01:38.299Z,4.30
2023-01-09T08:04:08.253Z,5.40
2023-01-09T08:06:36.741Z,3.13
2023-01-09T08:09:05.231Z,5.78
2023-01-09T08:11:33.620Z,4.97
2023-01-09T08:14:01.946Z,5.40
2023-01-09T08:16:30.361Z,3.58
2023-01-09T08:18:58.730Z,4.30
2023-01-09T08:21:28.457Z,4.03
2023-01-09T08:23:56.895Z,4.88
2023-01-09T08:26:25.272Z,3.90
2023-01-09T08:28:53.717Z,5.13
2023-01-09T08:31:22.153Z,4.32
2023-01-09T08:33:50.599Z,4.40
2023-01-09T08:36:19.019Z,4.63
2023-01-09T08:38:48.784Z,3.35
2023-01-09T08:41:34.564Z,3.78
2023-01-09T08:44:20.513Z,4.65
2023-01-09T08:47:07.012Z,2.63
2023-01-09T08:49:36.191Z,2.67
2023-01-09T08:52:05.115Z,4.75
2023-01-09T08:54:36.945Z,4.80
2023-01-09T08:57:05.526Z,3.83
2023-01-09T08:59:33.944Z,3.58
2023-01-09T09:02:02.532Z,4.70
2023-01-09T09:04:31.304Z,3.95
2023-01-09T09:06:59.771Z,4.40
2023-01-09T09:09:28.182Z,4.93
2023-01-09T09:11:57.965Z,4.63
2023-01-09T09:14:43.975Z,3.97
2023-01-09T09:17:14.578Z,5.20
2023-01-09T09:19:43.586Z,2.25
2023-01-09T09:22:14.534Z,3.72
2023-01-09T09:24:43.147Z,3.72
2023-01-09T09:27:12.925Z,4.18
2023-01-09T09:29:41.274Z,2.05
2023-01-09T09:32:09.621Z,4.20
2023-01-09T09:34:37.994Z,4.90
2023-01-09T09:37:06.499Z,5.13
2023-01-09T09:39:35.121Z,4.13
2023-01-09T09:42:40.801Z,4.88
2023-01-09T09:45:22.283Z,3.70
2023-01-09T09:47:57.374Z,3.33
2023-01-09T09:50:32.209Z,2.83
2023-01-09T09:53:04.827Z,3.08
2023-01-09T09:55:35.614Z,5.30
2023-01-09T09:58:08.473Z,6.25
2023-01-09T10:00:37.019Z,5.13
2023-01-09T10:03:07.770Z,4.32
2023-01-09T10:05:37.275Z,4.13
2023-01-09T10:08:15.651Z,5.90
2023-01-09T10:10:48.235Z,6.13
2023-01-09T10:13:37.654Z,4.25
2023-01-09T10:16:10.119Z,4.63
2023-01-09T10:18:48.213Z,3.58
2023-01-09T10:21:18.903Z,3.65
2023-01-09T10:24:04.684Z,4.70
2023-01-09T10:26:38.258Z,4.10
2023-01-09T10:29:28.257Z,3.72
2023-01-09T10:32:07.644Z,2.70
2023-01-09T10:34:47.014Z,4.07
2023-01-09T10:37:16.926Z,4.35
2023-01-09T10:39:50.144Z,4.57
2023-01-09T10:42:23.687Z,3.88
2023-01-09T10:44:57.029Z,3.97
2023-01-09T10:47:29.309Z,3.90
2023-01-09T10:49:58.550Z,4.28
2023-01-09T10:52:30.450Z,4.32
2023-01-09T10:55:07.343Z,5.28
2023-01-09T10:57:42.098Z,3.63
2023-01-09T11:02:52.037Z,4.05
2023-01-09T11:05:22.305Z,3.05
2023-01-09T11:07:54.425Z,3.65
2023-01-09T11:10:22.903Z,3.15
2023-01-09T11:12:51.285Z,4.07
2023-01-09T11:15:29.282Z,3.92
2023-01-09T11:18:19.849Z,4.80
2023-01-09T11:20:48.286Z,3.75
2023-01-09T11:23:28.877Z,4.53
2023-01-09T11:25:58.990Z,3.50
2023-01-09T11:28:27.562Z,4.47
2023-01-09T11:30:59.857Z,4.85
2023-01-09T11:33:30.400Z,4.60
2023-01-09T11:36:02.107Z,3.17
2023-01-09T11:38:31.137Z,4.82
2023-01-09T11:41:01.649Z,2.60
2023-01-09T11:43:33.882Z,5.05
2023-01-09T11:46:05.807Z,4.65
2023-01-09T11:48:39.860Z,3.72
2023-01-09T11:51:20.508Z,4.40
2023-01-09T11:54:14.213Z,3.65
2023-01-09T11:56:42.986Z,4.80
2023-01-09T11:59:13.456Z,5.03
2023-01-09T12:02:06.912Z,4.90
2023-01-09T12:04:37.396Z,4.15
2023-01-09T12:07:22.434Z,5.22
2023-01-09T12:09:59.265Z,6.63
2023-01-09T12:12:32.800Z,3.67
2023-01-09T12:15:17.731Z,5.00
2023-01-09T12:17:58.198Z,5.75
2023-01-09T12:20:35.141Z,2.88
2023-01-09T12:23:17.261Z,3.78
2023-01-09T12:25:52.064Z,4.32
2023-01-09T12:31:26.849Z,3.58
2023-01-09T12:34:04.316Z,2.30
2023-01-09T12:36:36.873Z,4.53
2023-01-09T12:39:10.596Z,4.80
2023-01-09T12:41:58.176Z,3.57
2023-01-09T12:44:54.664Z,4.20
2023-01-09T12:47:45.350Z,6.22
2023-01-09T12:50:43.707Z,3.72
2023-01-09T12:53:20.079Z,4.15
2023-01-09T12:55:53.496Z,5.68
2023-01-09T12:58:30.606Z,4.55
2023-01-09T13:01:00.448Z,4.50
2023-01-09T13:03:33.383Z,2.72
2023-01-09T13:06:02.771Z,5.18
2023-01-09T13:08:33.910Z,3.20
2023-01-09T13:11:19.369Z,3.80
2023-01-09T13:13:51.448Z,3.97
2023-01-09T13:16:23.370Z,4.28
2023-01-09T13:18:57.261Z,3.88
2023-01-09T13:21:26.449Z,3.27
2023-01-09T13:24:00.459Z,5.68
2023-01-09T13:26:30.574Z,3.40
2023-01-09T13:29:03.290Z,3.15
2023-01-09T13:31:48.413Z,3.35
2023-01-09T13:34:22.402Z,3.72
2023-01-09T13:36:53.168Z,4.13
2023-01-09T13:39:24.598Z,2.42
2023-01-09T13:42:13.256Z,3.50
2023-01-09T13:44:42.146Z,4.20
2023-01-09T13:47:18.956Z,7.43
2023-01-09T13:50:23.952Z,2.58
2023-01-09T13:52:52.265Z,3.75
2023-01-09T13:55:36.252Z,3.55
2023-01-09T13:58:22.797Z,5.22
2023-01-09T14:01:08.110Z,2.75
2023-01-09T14:03:37.841Z,4.05
2023-01-09T14:06:24.406Z,4.30
2023-01-09T14:09:14.008Z,2.78
2023-01-09T14:11:44.845Z,3.80
2023-01-09T14:14:28.998Z,4.47
2023-01-09T14:16:59.286Z,2.25
2023-01-09T14:19:38.574Z,4.35
2023-01-09T14:22:07.434Z,4.25
2023-01-09T14:24:42.401Z,4.20
2023-01-09T14:27:44.128Z,3.17
2023-01-09T14:30:30.471Z,5.93
2023-01-09T14:32:59.750Z,2.90
2023-01-09T14:35:30.599Z,3.35
2023-01-09T14:38:08.422Z,4.20
2023-01-09T14:40:37.455Z,2.78
2023-01-09T14:43:22.966Z,5.65
2023-01-09T14:45:53.720Z,3.08
2023-01-09T14:48:24.572Z,5.45
2023-01-09T14:50:55.870Z,3.72
2023-01-09T14:53:26.340Z,3.85
2023-01-09T14:55:55.776Z,3.28
2023-01-09T14:58:25.904Z,3.03
2023-01-09T15:01:00.453Z,3.42
2023-01-09T15:05:58.575Z,3.42
2023-01-09T15:08:28.926Z,3.60
2023-01-09T15:10:58.182Z,2.40
2023-01-09T15:13:33.803Z,2.33
2023-01-09T15:16:06.086Z,4.25
2023-01-09T15:18:39.533Z,3.60
2023-01-09T15:21:07.979Z,3.97
2023-01-09T15:23:36.383Z,3.55
2023-01-09T15:26:15.985Z,3.22
2023-01-09T15:28:45.219Z,4.63
2023-01-09T15:31:17.322Z,4.28
2023-01-09T15:33:47.844Z,2.22
2023-01-09T15:36:19.909Z,3.38
2023-01-09T15:38:49.769Z,2.85
2023-01-09T15:41:40.901Z,4.03
2023-01-09T15:44:14.782Z,3.45
2023-01-09T15:46:46.581Z,3.60
2023-01-09T15:49:15.596Z,4.13
2023-01-09T15:51:45.810Z,2.50
2023-01-09T15:54:15.846Z,4.05
2023-01-09T15:56:46.101Z,4.78
2023-01-09T15:59:24.585Z,3.83
2023-01-09T16:02:20.897Z,4.00
2023-01-09T16:04:50.284Z,3.25
2023-01-09T16:07:21.669Z,4.13
2023-01-09T16:09:53.538Z,2.78
2023-01-09T16:12:23.982Z,3.00
2023-01-09T16:14:53.928Z,3.42
2023-01-09T16:17:26.755Z,2.58
2023-01-09T16:19:58.051Z,2.08
2023-01-09T16:22:27.815Z,2.67
2023-01-09T16:24:58.571Z,2.47
2023-01-09T16:27:29.047Z,3.05
2023-01-09T16:29:59.838Z,6.25
2023-01-09T16:32:31.785Z,2.92
2023-01-09T16:35:01.456Z,2.72
2023-01-09T16:37:32.271Z,3.85
2023-01-09T16:40:26.534Z,3.03
2023-01-09T16:43:03.495Z,4.32
2023-01-09T16:45:34.656Z,3.67
2023-01-09T16:48:11.191Z,3.53
2023-01-09T16:50:40.416Z,2.92
2023-01-09T16:53:14.769Z,3.22
2023-01-09T16:55:43.431Z,3.13
2023-01-09T16:58:17.606Z,2.60
2023-01-09T17:00:48.250Z,3.72
2023-01-09T17:03:20.372Z,2.50
2023-01-09T17:05:55.250Z,2.85
2023-01-09T17:08:28.365Z,3.10
2023-01-09T17:10:58.253Z,2.85
2023-01-09T17:13:27.873Z,3.67
2023-01-09T17:15:57.736Z,2.45
2023-01-09T17:18:29.676Z,3.28
2023-01-09T17:20:59.450Z,3.00
2023-01-09T17:23:28.933Z,2.33
2023-01-09T17:26:16.810Z,3.13
2023-01-09T17:28:46.455Z,3.35
2023-01-09T17:31:16.143Z,2.85
2023-01-09T17:33:45.988Z,2.50
2023-01-09T17:36:21.329Z,2.60
2023-01-09T17:38:54.849Z,2.80
2023-01-09T17:41:23.979Z,2.03
2023-01-09T17:43:52.438Z,3.67
2023-01-09T17:46:24.702Z,3.45
2023-01-09T17:48:54.637Z,2.90
2023-01-09T17:51:23.384Z,4.68
2023-01-09T17:53:51.892Z,3.33
2023-01-09T17:56:22.635Z,3.45
2023-01-09T17:58:51.130Z,2.75
2023-01-09T18:01:21.173Z,2.78
2023-01-09T18:03:50.703Z,2.95
2023-01-09T18:06:22.211Z,3.20
2023-01-09T18:08:50.955Z,3.20
2023-01-09T18:11:24.297Z,3.00
2023-01-09T18:13:54.375Z,3.97
2023-01-09T18:16:25.258Z,3.17
2023-01-09T18:18:54.823Z,2.13
2023-01-09T18:21:25.364Z,3.53
2023-01-09T18:23:53.942Z,2.65
2023-01-09T18:26:25.644Z,2.53
2023-01-09T18:28:56.962Z,2.95
2023-01-09T18:31:28.349Z,2.25
2023-01-09T18:33:58.270Z,1.95
2023-01-09T18:36:30.117Z,3.67
2023-01-09T18:39:00.700Z,2.33
2023-01-09T18:41:30.107Z,2.92
2023-01-09T18:44:00.228Z,3.13
2023-01-09T18:46:32.452Z,2.63
2023-01-09T18:49:02.405Z,2.38
2023-01-09T18:51:34.793Z,4.30
2023-01-09T18:54:03.209Z,3.08
2023-01-09T18:56:31.901Z,1.90
2023-01-09T18:59:00.413Z,1.83
2023-01-09T19:01:29.731Z,2.22
2023-01-09T19:03:58.528Z,2.45
2023-01-09T19:06:27.427Z,2.97
2023-01-09T19:08:57.552Z,2.60
2023-01-09T19:11:25.996Z,2.35
2023-01-09T19:13:54.659Z,3.85
2023-01-09T19:16:23.093Z,3.50
2023-01-09T19:18:51.570Z,2.47
2023-01-09T19:21:21.192Z,1.98
2023-01-09T19:23:51.125Z,2.20
2023-01-09T19:26:23.865Z,2.92
2023-01-09T19:28:55.334Z,3.22
2023-01-09T19:31:24.787Z,2.63
2023-01-09T19:33:54.211Z,2.72
2023-01-09T19:36:23.216Z,2.75
2023-01-09T19:38:57.113Z,3.40
2023-01-09T19:41:28.399Z,3.45
2023-01-09T19:43:57.003Z,2.33
2023-01-09T19:46:26.618Z,2.60
2023-01-09T19:48:55.177Z,2.28
2023-01-09T19:51:24.961Z,1.88
2023-01-09T19:53:54.937Z,3.10
2023-01-09T19:56:24.760Z,2.22
2023-01-09T19:58:55.636Z,4.07
2023-01-09T20:01:25.763Z,2.70
2023-01-09T20:03:56.567Z,2.65
2023-01-09T20:06:26.562Z,2.30
2023-01-09T20:08:56.700Z,2.53
2023-01-09T20:11:26.549Z,2.58
2023-01-09T20:13:56.750Z,1.98
2023-01-09T20:16:28.387Z,2.75
2023-01-09T20:18:57.831Z,3.30
2023-01-09T20:21:27.999Z,2.83
2023-01-09T20:23:58.210Z,2.03
2023-01-09T20:26:27.161Z,3.85
2023-01-09T20:28:57.416Z,2.45
2023-01-09T20:31:28.260Z,2.42
2023-01-09T20:33:59.061Z,3.03
2023-01-09T20:36:30.251Z,3.22
2023-01-09T20:39:01.134Z,2.15
2023-01-09T20:41:31.476Z,2.97
2023-01-09T20:44:07.123Z,2.88
2023-01-09T20:46:37.287Z,2.38
2023-01-09T20:51:36.303Z,2.08
2023-01-09T20:56:36.265Z,2.13
2023-01-09T20:59:07.055Z,2.28
2023-01-09T21:01:35.696Z,2.75
2023-01-09T21:04:04.297Z,2.28
2023-01-09T21:06:33.134Z,1.73
2023-01-09T21:09:01.517Z,2.45
2023-01-09T21:11:30.060Z,3.05
2023-01-09T21:13:58.623Z,2.72
2023-01-09T21:16:29.477Z,2.08
2023-01-09T21:18:57.957Z,2.22
2023-01-09T21:21:27.796Z,2.08
2023-01-09T21:23:58.337Z,2.35
2023-01-09T21:26:30.475Z,2.03
2023-01-09T21:29:01.404Z,1.88
2023-01-09T21:31:34.934Z,2.63
2023-01-09T21:34:05.707Z,2.25
2023-01-09T21:36:35.501Z,2.63
2023-01-09T21:39:07.479Z,3.05
2023-01-09T21:41:53.826Z,2.22
2023-01-09T21:44:39.503Z,2.95
2023-01-09T21:47:09.327Z,2.10
2023-01-09T21:49:41.137Z,3.65
2023-01-09T21:52:09.805Z,2.20
2023-01-09T21:54:38.223Z,3.40
2023-01-09T21:57:06.919Z,2.47
2023-01-09T21:59:35.306Z,2.17
2023-01-09T22:02:03.655Z,1.92
2023-01-09T22:04:33.685Z,2.35
2023-01-09T22:07:02.212Z,2.00
2023-01-09T22:09:30.633Z,2.03
2023-01-09T22:11:59.023Z,3.03
2023-01-09T22:14:27.392Z,3.17
2023-01-09T22:16:55.789Z,1.88
2023-01-09T22:19:24.523Z,5.13
2023-01-09T22:21:55.283Z,2.22
2023-01-09T22:24:23.718Z,2.55
2023-01-09T22:26:52.064Z,2.13
2023-01-09T22:29:21.952Z,2.85
2023-01-09T22:31:50.320Z,2.72
2023-01-09T22:34:20.416Z,2.45
2023-01-09T22:36:48.978Z,1.77
2023-01-09T22:39:20.041Z,1.98
2023-01-09T22:41:51.859Z,2.22
2023-01-09T22:44:20.337Z,2.40
2023-01-09T22:46:49.039Z,2.60
2023-01-09T22:49:19.705Z,2.63
2023-01-09T22:51:48.090Z,3.00
2023-01-09T22:54:16.538Z,1.65
2023-01-09T22:56:46.446Z,1.98
2023-01-09T22:59:14.828Z,2.47
2023-01-09T23:01:43.194Z,1.92
2023-01-09T23:04:13.567Z,2.35
2023-01-09T23:06:42.044Z,1.85
2023-01-09T23:09:10.715Z,2.05
2023-01-09T23:11:56.749Z,1.90
2023-01-09T23:14:26.492Z,3.00
2023-01-09T23:16:57.954Z,1.33
2023-01-09T23:19:26.456Z,2.42
2023-01-09T23:21:55.025Z,2.20
2023-01-09T23:24:23.877Z,3.40
2023-01-09T23:26:55.064Z,2.40
2023-01-09T23:29:23.907Z,2.90
2023-01-09T23:31:53.985Z,2.08
2023-01-09T23:34:25.726Z,2.85
2023-01-09T23:36:57.634Z,2.17
2023-01-09T23:39:26.529Z,3.42
2023-01-09T23:42:12.450Z,3.13
2023-01-09T23:44:40.872Z,1.30
2023-01-09T23:47:10.731Z,2.47
2023-01-09T23:49:43.143Z,2.13
2023-01-09T23:52:11.824Z,1.55
2023-01-09T23:54:40.712Z,3.35
2023-01-09T23:57:11.848Z,2.22
2023-01-09T23:59:40.796Z,1.90
